Time;durP1;ratioP1;P1;durP2;ratioP2;P2;SDS_P1;SDS_P2;PMS_P1;PMS_P2;Temp;Humidity;BMP_temperature;BMP_pressure;BME280_temperature;BME280_humidity;BME280_pressure;Samples;Min_cycle;Max_cycle;Signal;HPM_P1;HPM_P2
2022/09/01 00:02:19;;;;;;;4.43;2.15;;;;;;;15.08;84.76;102159.41;10458350;28;20024;-70
2022/09/01 00:07:20;;;;;;;5.47;1.90;;;;;;;14.98;83.22;102150.72;10460399;28;20036;-71
2022/09/01 00:12:21;;;;;;;5.25;1.92;;;;;;;14.93;81.31;102158.63;10459901;28;20349;-70
2022/09/01 00:17:21;;;;;;;2.22;1.92;;;;;;;14.77;81.40;102148.00;10458963;28;20033;-68
2022/09/01 00:22:22;;;;;;;3.75;1.60;;;;;;;14.76;81.01;102162.69;10458469;28;20424;-70
2022/09/01 00:27:22;;;;;;;2.20;1.70;;;;;;;14.71;80.59;102154.22;10458951;28;20044;-70
2022/09/01 00:32:24;;;;;;;2.15;1.65;;;;;;;14.64;83.83;102146.84;10457444;28;20037;-70
2022/09/01 00:37:24;;;;;;;7.28;2.03;;;;;;;14.63;82.11;102145.13;10458462;28;20033;-70
2022/09/01 00:42:24;;;;;;;5.55;2.50;;;;;;;14.59;83.54;102148.47;10457108;28;20040;-70
2022/09/01 00:47:25;;;;;;;2.72;2.22;;;;;;;14.53;84.30;102132.88;10456859;28;20045;-72
2022/09/01 00:52:29;;;;;;;6.13;2.28;;;;;;;14.42;87.34;102136.91;10458488;28;20449;-71
2022/09/01 00:57:30;;;;;;;1.88;1.48;;;;;;;14.45;85.18;102136.50;10455969;28;20029;-70
2022/09/01 01:02:30;;;;;;;2.53;1.70;;;;;;;14.41;84.74;102129.78;10456398;28;20037;-70
2022/09/01 01:07:34;;;;;;;2.58;2.17;;;;;;;14.37;84.83;102137.50;10457532;28;20037;-70
2022/09/01 01:12:36;;;;;;;4.10;3.08;;;;;;;14.32;82.86;102130.91;10455069;28;20040;-70
2022/09/01 01:17:37;;;;;;;3.63;2.38;;;;;;;14.26;83.93;102137.13;10458062;28;20029;-70
2022/09/01 01:23:01;;;;;;;5.07;1.75;;;;;;;14.26;87.13;102129.81;10455283;28;20025;-71
2022/09/01 01:28:15;;;;;;;7.35;2.50;;;;;;;14.26;86.65;102128.97;10457707;28;20025;-70
2022/09/01 01:33:16;;;;;;;6.95;2.30;;;;;;;14.19;90.54;102131.63;10457482;28;20032;-71
2022/09/01 01:38:19;;;;;;;3.97;1.65;;;;;;;14.23;88.61;102129.34;10456578;28;20040;-70
2022/09/01 01:43:21;;;;;;;2.88;1.98;;;;;;;14.18;87.81;102128.06;10472221;28;20499;-71
2022/09/01 01:48:23;;;;;;;6.07;2.25;;;;;;;14.18;88.57;102133.50;10455534;28;20061;-70
2022/09/01 01:53:23;;;;;;;2.38;2.17;;;;;;;14.21;88.91;102128.72;10455612;28;20083;-70
2022/09/01 01:58:24;;;;;;;5.20;2.75;;;;;;;14.19;90.06;102126.16;10438929;28;20029;-70
2022/09/01 02:03:27;;;;;;;4.18;1.60;;;;;;;14.19;89.04;102131.63;10460617;28;20067;-70
2022/09/01 02:08:28;;;;;;;4.57;2.22;;;;;;;14.14;87.14;102129.47;10461199;28;20424;-70
2022/09/01 02:13:31;;;;;;;4.30;2.35;;;;;;;14.11;88.20;102126.28;10471729;28;20198;-71
2022/09/01 02:18:34;;;;;;;3.40;2.30;;;;;;;14.03;91.00;102116.34;10455678;28;20444;-71
2022/09/01 02:23:34;;;;;;;1.95;1.85;;;;;;;14.02;90.56;102109.22;10456111;28;20040;-71
2022/09/01 02:28:39;;;;;;;2.28;2.08;;;;;;;14.03;90.22;102115.50;10461668;28;20486;-70
2022/09/01 02:33:42;;;;;;;4.72;2.90;;;;;;;13.96;91.18;102108.09;10464302;28;20116;-70
2022/09/01 02:38:44;;;;;;;8.52;2.40;;;;;;;13.97;90.72;102111.66;10446189;28;20091;-70
2022/09/01 02:43:45;;;;;;;7.57;2.55;;;;;;;13.91;91.71;102109.69;10463063;28;20357;-70
2022/09/01 02:48:50;;;;;;;5.60;2.70;;;;;;;13.88;91.09;102112.78;10462372;28;20049;-72
2022/09/01 02:53:51;;;;;;;3.03;2.00;;;;;;;13.85;92.05;102108.59;10462530;28;20392;-71
2022/09/01 02:58:52;;;;;;;2.88;2.47;;;;;;;13.86;92.19;102109.44;10462228;28;20108;-71
2022/09/01 03:03:54;;;;;;;2.97;2.75;;;;;;;13.79;93.47;102097.59;10460363;28;20037;-71
2022/09/01 03:08:58;;;;;;;2.05;1.95;;;;;;;13.86;94.22;102093.09;10460888;28;20421;-71
2022/09/01 03:13:58;;;;;;;2.47;2.25;;;;;;;13.85;92.04;102086.81;10461456;28;20041;-71
2022/09/01 03:19:01;;;;;;;9.60;2.78;;;;;;;13.88;93.08;102091.88;10461619;28;20041;-70
2022/09/01 03:24:02;;;;;;;4.80;2.33;;;;;;;13.87;93.13;102105.66;10461999;28;20025;-71
2022/09/01 03:29:03;;;;;;;3.80;2.72;;;;;;;13.85;93.50;102088.69;10461291;28;20029;-70
2022/09/01 03:34:04;;;;;;;2.25;2.15;;;;;;;13.81;91.51;102092.81;10460629;28;20037;-72
2022/09/01 03:39:07;;;;;;;2.28;2.08;;;;;;;13.73;91.64;102082.88;10460278;28;20028;-70
2022/09/01 03:44:10;;;;;;;9.65;2.88;;;;;;;13.69;91.56;102076.97;10460925;28;20041;-71
2022/09/01 03:49:14;;;;;;;6.90;2.72;;;;;;;13.61;89.79;102084.38;10460370;28;20110;-71
2022/09/01 03:54:14;;;;;;;4.93;2.58;;;;;;;13.59;92.00;102090.03;10460218;28;20068;-71
2022/09/01 03:59:18;;;;;;;5.75;2.55;;;;;;;13.57;93.24;102083.06;10460200;28;20040;-72
2022/09/01 04:04:18;;;;;;;3.40;2.58;;;;;;;13.52;92.65;102080.91;10458885;28;20025;-72
2022/09/01 04:09:19;;;;;;;3.10;2.58;;;;;;;13.49;91.15;102073.94;10458001;28;20041;-70
2022/09/01 04:14:20;;;;;;;8.90;2.97;;;;;;;13.41;90.63;102076.78;10459343;28;20053;-69
2022/09/01 04:19:25;;;;;;;7.95;3.60;;;;;;;13.42;90.39;102072.19;10475529;28;20031;-72
2022/09/01 04:24:29;;;;;;;5.60;2.45;;;;;;;13.37;90.22;102083.63;10461009;28;20021;-70
2022/09/01 04:29:30;;;;;;;8.52;2.65;;;;;;;13.38;90.21;102090.75;10462908;28;20066;-71
2022/09/01 04:34:36;;;;;;;6.82;3.45;;;;;;;13.37;91.66;102086.38;10463995;28;20056;-70
2022/09/01 04:39:37;;;;;;;7.13;3.20;;;;;;;13.40;93.42;102079.69;10459112;28;20484;-72
2022/09/01 04:44:38;;;;;;;4.55;3.08;;;;;;;13.42;91.73;102074.91;10458317;28;20033;-71
2022/09/01 04:49:39;;;;;;;3.67;2.80;;;;;;;13.41;91.82;102084.94;10457894;28;20393;-72
2022/09/01 04:54:39;;;;;;;5.55;2.47;;;;;;;13.46;92.37;102087.97;10456406;28;20083;-71
2022/09/01 04:59:40;;;;;;;4.28;3.75;;;;;;;13.48;95.56;102085.88;10458141;28;20029;-70
2022/09/01 05:04:43;;;;;;;6.70;3.72;;;;;;;13.53;94.61;102088.06;10457360;28;20373;-71
2022/09/01 05:09:44;;;;;;;6.45;3.60;;;;;;;13.54;95.76;102081.56;10457575;28;20457;-70
2022/09/01 05:14:47;;;;;;;4.93;3.30;;;;;;;13.60;95.02;102074.53;10456630;28;20044;-70
2022/09/01 05:19:49;;;;;;;9.32;2.88;;;;;;;13.62;93.69;102086.06;10457127;28;20028;-69
2022/09/01 05:24:51;;;;;;;4.18;2.35;;;;;;;13.63;94.09;102083.16;10455553;28;20049;-70
2022/09/01 05:29:52;;;;;;;3.05;2.83;;;;;;;13.74;92.94;102073.66;10456634;28;20032;-70
2022/09/01 05:34:52;;;;;;;4.63;2.13;;;;;;;13.80;93.27;102077.50;10456898;28;20048;-70
2022/09/01 05:39:52;;;;;;;5.03;3.10;;;;;;;13.91;92.66;102077.00;10456377;28;20048;-71
2022/09/01 05:44:53;;;;;;;2.80;2.50;;;;;;;14.05;91.88;102083.47;10454899;28;20407;-70
2022/09/01 05:49:57;;;;;;;2.72;2.35;;;;;;;14.08;91.59;102073.03;10456733;28;20041;-70
2022/09/01 05:54:58;;;;;;;4.18;2.50;;;;;;;14.10;91.80;102087.31;10471548;28;20124;-71
2022/09/01 05:59:59;;;;;;;2.97;2.33;;;;;;;14.13;91.78;102080.63;10461041;28;20091;-71
2022/09/01 06:04:59;;;;;;;3.40;2.78;;;;;;;14.24;89.87;102093.75;10466108;28;20084;-70
2022/09/01 06:10:00;;;;;;;2.92;2.45;;;;;;;15.24;87.57;102083.75;10463523;28;20104;-70
2022/09/01 06:15:00;;;;;;;5.45;2.70;;;;;;;16.27;82.95;102088.28;10481565;28;20052;-70
2022/09/01 06:20:09;;;;;;;3.33;3.03;;;;;;;17.14;79.72;102088.38;10466221;28;20076;-70
2022/09/01 06:25:09;;;;;;;3.55;2.47;;;;;;;17.84;74.48;102083.19;10466665;28;20380;-72
2022/09/01 06:30:19;;;;;;;3.65;2.40;;;;;;;18.14;71.16;102080.72;10465737;28;20041;-70
2022/09/01 06:35:20;;;;;;;7.65;2.58;;;;;;;18.46;68.77;102088.97;10462853;28;20025;-70
2022/09/01 06:40:20;;;;;;;4.00;3.13;;;;;;;18.62;65.82;102082.09;10464522;28;20041;-70
2022/09/01 06:45:21;;;;;;;2.25;2.10;;;;;;;18.83;64.75;102094.66;10463112;28;20389;-70
2022/09/01 06:50:22;;;;;;;2.45;2.28;;;;;;;19.14;63.61;102091.81;10464313;28;20037;-70
2022/09/01 06:55:22;;;;;;;2.50;2.30;;;;;;;19.52;61.40;102083.38;10465260;28;20381;-70
2022/09/01 07:00:23;;;;;;;2.35;2.22;;;;;;;19.67;60.10;102096.78;10468210;28;20033;-71
2022/09/01 07:05:23;;;;;;;3.00;2.72;;;;;;;20.07;59.30;102090.81;10466729;28;20048;-70
2022/09/01 07:10:24;;;;;;;7.43;2.17;;;;;;;20.41;59.19;102092.00;10462505;28;20033;-70
2022/09/01 07:15:26;;;;;;;2.20;2.05;;;;;;;20.72;55.99;102092.00;10463762;28;20053;-70
2022/09/01 07:20:28;;;;;;;3.30;2.40;;;;;;;20.88;55.26;102092.16;10464003;28;20049;-70
2022/09/01 07:25:30;;;;;;;2.58;2.22;;;;;;;21.18;55.00;102095.88;10462637;28;20132;-70
2022/09/01 07:30:32;;;;;;;2.53;2.33;;;;;;;21.37;53.62;102102.97;10463130;28;20086;-70
2022/09/01 07:35:36;;;;;;;2.13;1.98;;;;;;;21.55;52.09;102091.81;10462031;28;20120;-69
2022/09/01 07:40:37;;;;;;;2.60;2.40;;;;;;;21.78;52.01;102099.19;10461490;28;20083;-70
2022/09/01 07:45:39;;;;;;;9.40;2.45;;;;;;;22.01;51.50;102097.44;10461371;28;20033;-69
2022/09/01 07:50:46;;;;;;;3.17;2.90;;;;;;;22.53;51.07;102097.41;10443099;28;20386;-71
2022/09/01 07:55:51;;;;;;;4.03;2.65;;;;;;;22.97;50.66;102098.47;10461919;28;20119;-69
2022/09/01 08:00:52;;;;;;;6.65;3.22;;;;;;;23.23;49.38;102104.38;10459758;28;20377;-71
2022/09/01 08:05:56;;;;;;;3.33;2.85;;;;;;;23.49;48.66;102097.31;10458714;28;20032;-69
2022/09/01 08:10:57;;;;;;;2.92;2.72;;;;;;;23.70;48.46;102098.44;10459870;28;20037;-70
2022/09/01 08:15:57;;;;;;;4.05;3.03;;;;;;;23.75;46.11;102097.66;10459787;28;20468;-69
2022/09/01 08:20:58;;;;;;;4.68;2.85;;;;;;;23.97;46.82;102092.13;10457631;28;20080;-70
2022/09/01 08:25:58;;;;;;;4.63;3.05;;;;;;;24.22;45.94;102095.19;10457989;28;20037;-69
2022/09/01 08:30:59;;;;;;;2.83;2.63;;;;;;;24.32;45.85;102097.22;10440990;28;20097;-69
2022/09/01 08:35:59;;;;;;;10.23;3.00;;;;;;;24.53;44.69;102085.28;10474034;28;20045;-70
2022/09/01 08:41:02;;;;;;;2.70;2.50;;;;;;;24.87;44.09;102092.50;10458657;28;20506;-69
2022/09/01 08:46:16;;;;;;;5.25;3.20;;;;;;;25.17;44.41;102091.91;10457688;28;20041;-71
2022/09/01 08:51:38;;;;;;;2.28;2.10;;;;;;;25.36;43.89;102095.09;10457874;28;20040;-68
2022/09/01 08:56:38;;;;;;;7.25;2.85;;;;;;;25.64;42.00;102085.53;10457403;28;20440;-70
2022/09/01 09:01:55;;;;;;;7.53;3.00;;;;;;;25.48;42.03;102079.91;10440683;28;20033;-69
2022/09/01 09:07:06;;;;;;;3.45;3.15;;;;;;;25.68;42.57;102078.34;10459365;28;20098;-71
2022/09/01 09:12:37;;;;;;;2.65;2.45;;;;;;;26.14;41.01;102079.38;10461378;28;20099;-69
2022/09/01 09:17:52;;;;;;;6.05;2.17;;;;;;;26.05;40.41;102071.84;10457623;28;20045;-70
2022/09/01 09:22:52;;;;;;;3.53;3.20;;;;;;;26.35;39.39;102077.47;10458865;28;20032;-69
2022/09/01 09:27:52;;;;;;;2.58;2.35;;;;;;;26.05;40.25;102077.41;10458986;28;20115;-70
2022/09/01 09:33:04;;;;;;;2.55;2.45;;;;;;;26.13;39.46;102066.63;10458549;28;20041;-68
2022/09/01 09:38:31;;;;;;;3.92;2.30;;;;;;;26.43;39.94;102068.59;10458924;28;20039;-69
2022/09/01 09:43:37;;;;;;;2.58;2.30;;;;;;;26.53;37.99;102059.47;10456192;28;20060;-69
2022/09/01 09:48:37;;;;;;;3.40;2.83;;;;;;;26.46;38.49;102045.00;10454956;28;20036;-70
2022/09/01 09:53:38;;;;;;;15.33;3.00;;;;;;;26.58;38.89;102051.16;10456810;28;20102;-69
2022/09/01 09:58:40;;;;;;;4.10;2.47;;;;;;;26.82;38.29;102056.13;10455407;28;20361;-70
2022/09/01 10:03:47;;;;;;;3.88;3.00;;;;;;;26.81;38.63;102046.13;10455557;28;20329;-70
2022/09/01 10:08:48;;;;;;;2.17;2.08;;;;;;;27.31;37.76;102042.47;10457177;28;20032;-69
2022/09/01 10:13:48;;;;;;;2.33;2.22;;;;;;;27.70;36.73;102046.47;10471740;28;20045;-70
2022/09/01 10:18:50;;;;;;;4.78;2.55;;;;;;;27.83;36.62;102033.94;10455720;28;20040;-70
2022/09/01 10:23:51;;;;;;;2.80;1.85;;;;;;;28.00;35.59;102029.63;10453845;28;20033;-70
2022/09/01 10:28:51;;;;;;;2.88;2.55;;;;;;;27.84;35.72;102022.50;10454638;28;20125;-70
2022/09/01 10:33:51;;;;;;;3.70;1.88;;;;;;;28.25;34.88;102013.88;10455935;28;20530;-70
2022/09/01 10:38:52;;;;;;;3.63;1.65;;;;;;;28.60;34.95;102025.88;10454259;28;20376;-70
2022/09/01 10:43:52;;;;;;;2.28;2.08;;;;;;;28.88;34.15;102013.91;10438049;28;20033;-70
2022/09/01 10:48:54;;;;;;;2.08;1.85;;;;;;;28.35;33.86;102005.44;10463776;28;20032;-70
2022/09/01 10:53:58;;;;;;;7.85;1.55;;;;;;;28.13;33.20;102022.59;10461264;28;20043;-70
2022/09/01 10:59:02;;;;;;;1.70;1.60;;;;;;;28.17;34.63;102008.91;10445082;28;20381;-69
2022/09/01 11:04:02;;;;;;;13.85;1.67;;;;;;;28.15;32.90;102011.16;10462986;28;20090;-69
2022/09/01 11:09:04;;;;;;;3.13;1.80;;;;;;;28.69;33.13;102004.63;10461437;28;20533;-69
2022/09/01 11:14:15;;;;;;;1.27;1.27;;;;;;;28.41;32.19;102003.47;10460691;28;20045;-69
2022/09/01 11:19:27;;;;;;;1.55;1.45;;;;;;;28.57;32.50;102001.38;10460692;28;20041;-69
2022/09/01 11:24:37;;;;;;;4.25;1.45;;;;;;;28.36;32.32;101995.13;10461533;28;20044;-70
2022/09/01 11:30:01;;;;;;;1.20;1.10;;;;;;;28.54;32.24;101999.19;10461049;28;20492;-70
2022/09/01 11:35:04;;;;;;;2.90;1.95;;;;;;;28.87;33.18;101987.13;10460019;28;20471;-70
2022/09/01 11:40:09;;;;;;;4.55;1.77;;;;;;;29.02;31.62;101991.75;10459706;28;20029;-70
2022/09/01 11:45:30;;;;;;;1.73;1.40;;;;;;;28.79;30.99;101998.13;10478042;28;20040;-70
2022/09/01 11:50:35;;;;;;;2.03;1.23;;;;;;;28.84;32.40;101992.47;10459315;28;20047;-70
2022/09/01 11:55:39;;;;;;;1.35;1.27;;;;;;;29.36;31.32;101982.44;10475078;28;20388;-70
2022/09/01 12:00:40;;;;;;;5.50;1.80;;;;;;;29.35;30.42;101991.91;10475630;28;20465;-70
2022/09/01 12:05:41;;;;;;;1.77;1.67;;;;;;;29.42;31.21;101970.09;10458967;28;20119;-70
2022/09/01 12:10:43;;;;;;;2.85;1.73;;;;;;;29.58;29.41;101979.91;10459042;28;20040;-70
2022/09/01 12:15:48;;;;;;;7.93;2.20;;;;;;;29.43;31.09;101972.56;10457727;28;20179;-83
2022/09/01 12:20:49;;;;;;;1.50;1.40;;;;;;;28.05;30.78;101971.13;10459532;28;20440;-84
2022/09/01 12:25:49;;;;;;;8.40;2.35;;;;;;;27.80;32.51;101957.38;10458962;28;20029;-80
2022/09/01 12:30:50;;;;;;;1.65;1.55;;;;;;;29.60;29.66;101951.69;10459281;28;20033;-84
2022/09/01 12:35:51;;;;;;;2.05;1.10;;;;;;;28.88;30.41;101947.00;10460442;28;20139;-76
2022/09/01 12:40:55;;;;;;;1.75;1.55;;;;;;;28.65;31.82;101945.00;10463144;28;20037;-84
2022/09/01 12:45:58;;;;;;;4.80;2.30;;;;;;;28.73;30.03;101949.94;10462928;28;20072;-83
2022/09/01 12:51:06;;;;;;;1.63;1.52;;;;;;;29.18;30.12;101953.34;10442244;28;20389;-83
2022/09/01 12:56:18;;;;;;;1.55;1.45;;;;;;;29.52;31.25;101935.63;10457903;28;20106;-83
2022/09/01 13:01:27;;;;;;;1.98;1.88;;;;;;;29.68;29.05;101934.31;10457960;28;20460;-80
2022/09/01 13:06:28;;;;;;;1.23;1.23;;;;;;;29.51;29.11;101943.13;10456823;28;20084;-82
2022/09/01 13:11:28;;;;;;;1.80;1.70;;;;;;;29.64;29.27;101934.06;10455540;28;20111;-82
2022/09/01 13:16:29;;;;;;;1.65;1.55;;;;;;;29.04;27.44;101932.91;10438945;28;20396;-79
2022/09/01 13:21:29;;;;;;;1.33;1.23;;;;;;;27.06;30.05;101936.84;10438779;28;20043;-79
2022/09/01 13:26:30;;;;;;;1.42;1.33;;;;;;;28.25;31.17;101925.56;10456038;28;20380;-81
2022/09/01 13:31:31;;;;;;;1.70;1.40;;;;;;;28.89;29.18;101931.09;10456718;28;20113;-76
2022/09/01 13:36:31;;;;;;;7.30;1.17;;;;;;;28.06;29.21;101919.06;10456507;28;20041;-76
2022/09/01 13:41:32;;;;;;;5.82;1.95;;;;;;;27.84;30.36;101908.34;10455557;28;20033;-84
2022/09/01 13:46:32;;;;;;;1.15;1.13;;;;;;;28.50;29.56;101916.16;10458625;28;20044;-84
2022/09/01 13:51:34;;;;;;;6.07;1.88;;;;;;;28.47;28.50;101915.94;10441171;28;20037;-77
2022/09/01 13:56:36;;;;;;;1.30;1.20;;;;;;;28.43;28.76;101901.75;10456119;28;20036;-70
2022/09/01 14:01:36;;;;;;;1.73;1.60;;;;;;;28.68;27.36;101897.84;10456258;28;20033;-70
2022/09/01 14:06:43;;;;;;;7.85;1.65;;;;;;;28.23;28.36;101899.13;10457203;28;20036;-71
2022/09/01 14:11:43;;;;;;;1.40;1.30;;;;;;;28.37;27.80;101894.53;10455640;28;20496;-70
2022/09/01 14:16:44;;;;;;;1.38;1.15;;;;;;;28.00;27.35;101884.84;10456810;28;20052;-70
2022/09/01 14:21:46;;;;;;;0.93;0.93;;;;;;;27.77;28.54;101897.56;10462382;28;20037;-71
2022/09/01 14:26:46;;;;;;;3.35;1.48;;;;;;;27.96;29.01;101881.00;10463760;28;20118;-70
2022/09/01 14:31:49;;;;;;;1.50;1.25;;;;;;;27.76;28.70;101887.53;10462548;28;20041;-70
2022/09/01 14:36:51;;;;;;;1.42;1.33;;;;;;;27.72;28.99;101868.91;10410577;28;20072;-70
2022/09/01 14:41:51;;;;;;;1.35;1.35;;;;;;;27.66;28.70;101865.31;10514850;28;20067;-70
2022/09/01 14:46:53;;;;;;;2.65;1.60;;;;;;;27.63;29.47;101862.28;10504068;28;20033;-70
2022/09/01 14:51:54;;;;;;;1.10;1.10;;;;;;;27.15;28.52;101862.84;10504720;28;20352;-70
2022/09/01 14:56:54;;;;;;;2.67;1.15;;;;;;;26.11;29.60;101863.38;10505842;28;20052;-70
2022/09/01 15:01:55;;;;;;;5.22;1.63;;;;;;;25.54;29.94;101847.78;10504187;28;20042;-70
2022/09/01 15:06:55;;;;;;;1.10;1.10;;;;;;;25.18;30.62;101847.72;10503740;28;20036;-70
2022/09/01 15:11:56;;;;;;;1.27;1.08;;;;;;;24.97;31.68;101837.63;10504897;28;20099;-70
2022/09/01 15:16:56;;;;;;;1.00;1.00;;;;;;;24.75;32.06;101843.34;10503489;28;20048;-70
2022/09/01 15:21:57;;;;;;;0.98;0.88;;;;;;;24.44;31.87;101832.16;10502187;28;20043;-70
2022/09/01 15:26:57;;;;;;;1.20;1.20;;;;;;;24.32;32.72;101846.16;10502419;28;20021;-70
2022/09/01 15:31:57;;;;;;;2.92;1.00;;;;;;;24.23;32.89;101833.06;10502287;28;20032;-70
2022/09/01 15:36:58;;;;;;;1.08;1.02;;;;;;;24.37;32.91;101823.19;10502164;28;20035;-71
2022/09/01 15:41:58;;;;;;;1.33;1.25;;;;;;;24.38;33.00;101811.03;10501950;28;20389;-70
2022/09/01 15:46:59;;;;;;;1.98;1.15;;;;;;;24.22;33.34;101817.56;10501953;28;20399;-70
2022/09/01 15:51:59;;;;;;;1.00;0.95;;;;;;;24.15;33.67;101820.56;10502803;28;20064;-70
2022/09/01 15:56:59;;;;;;;2.83;1.10;;;;;;;24.08;33.42;101806.13;10502050;28;20098;-70
2022/09/01 16:02:00;;;;;;;1.67;1.00;;;;;;;24.00;33.63;101812.16;10500311;28;20028;-70
2022/09/01 16:07:01;;;;;;;2.10;1.92;;;;;;;23.97;33.38;101798.88;10501209;28;20048;-70
2022/09/01 16:12:02;;;;;;;2.03;1.02;;;;;;;23.89;33.65;101797.41;10500395;28;20471;-70
2022/09/01 16:17:19;;;;;;;2.10;1.45;;;;;;;23.87;34.01;101799.63;10500331;28;20045;-70
2022/09/01 16:22:34;;;;;;;2.53;1.58;;;;;;;23.77;34.38;101792.09;10485295;28;20028;-70
2022/09/01 16:27:38;;;;;;;1.25;1.25;;;;;;;23.79;34.46;101792.63;10499594;28;20083;-70
2022/09/01 16:32:43;;;;;;;1.48;1.38;;;;;;;23.80;34.05;101782.41;10500106;28;20024;-70
2022/09/01 16:37:57;;;;;;;5.68;2.17;;;;;;;23.73;34.11;101782.63;10500461;28;20032;-70
2022/09/01 16:43:14;;;;;;;0.80;0.80;;;;;;;23.63;34.50;101780.56;10499547;28;20363;-70
2022/09/01 16:48:23;;;;;;;3.30;1.40;;;;;;;23.51;34.72;101777.16;10500151;28;20033;-70
2022/09/01 16:53:42;;;;;;;1.40;1.30;;;;;;;23.42;34.83;101782.34;10482935;28;20034;-70
2022/09/01 16:58:55;;;;;;;1.45;1.35;;;;;;;23.35;35.36;101775.34;10499427;28;20094;-70
2022/09/01 17:04:04;;;;;;;3.58;1.23;;;;;;;23.35;35.45;101778.94;10482959;28;20355;-70
2022/09/01 17:09:21;;;;;;;2.05;1.35;;;;;;;23.27;35.69;101770.31;10498924;28;20044;-70
2022/09/01 17:14:30;;;;;;;2.13;1.40;;;;;;;23.21;35.94;101777.72;10497551;28;20060;-70
2022/09/01 17:19:30;;;;;;;3.65;1.77;;;;;;;23.13;36.06;101772.63;10482255;28;20132;-70
2022/09/01 17:24:42;;;;;;;1.65;1.20;;;;;;;23.01;36.24;101767.28;10482283;28;20131;-70
2022/09/01 17:29:50;;;;;;;1.25;1.15;;;;;;;22.90;36.50;101771.81;10498259;28;20032;-70
2022/09/01 17:35:13;;;;;;;1.45;1.27;;;;;;;22.79;36.79;101770.03;10499495;28;20058;-70
2022/09/01 17:40:31;;;;;;;2.20;1.50;;;;;;;22.66;36.90;101762.16;10498094;28;20029;-70
2022/09/01 17:45:32;;;;;;;1.52;1.48;;;;;;;22.33;37.15;101772.19;10482207;28;20115;-70
2022/09/01 17:50:46;;;;;;;1.30;1.20;;;;;;;22.01;38.11;101767.31;10498494;28;20123;-70
2022/09/01 17:55:57;;;;;;;1.35;1.25;;;;;;;21.76;39.52;101759.50;10500409;28;20085;-70
2022/09/01 18:01:08;;;;;;;0.98;0.98;;;;;;;21.55;39.72;101774.03;10489085;28;20159;-70
2022/09/01 18:06:17;;;;;;;2.38;1.88;;;;;;;21.32;40.00;101766.72;10506044;28;20086;-70
2022/09/01 18:11:43;;;;;;;1.25;1.20;;;;;;;21.08;42.81;101769.56;10508344;28;20028;-70
2022/09/01 18:17:34;;;;;;;1.83;1.60;;;;;;;20.90;41.72;101775.28;10504348;28;20060;-70
2022/09/01 18:22:41;;;;;;;0.95;0.95;;;;;;;20.73;42.43;101777.13;10365886;28;20056;-70
2022/09/01 18:27:45;;;;;;;1.88;1.77;;;;;;;20.54;42.56;101780.03;10453488;28;20102;-70
2022/09/01 18:32:52;;;;;;;1.02;0.90;;;;;;;20.34;42.51;101776.81;10505045;28;20432;-70
2022/09/01 18:38:40;;;;;;;1.38;1.27;;;;;;;20.20;43.24;101781.75;10504411;28;20082;-70
2022/09/01 18:43:47;;;;;;;3.50;1.58;;;;;;;20.02;43.01;101788.22;10417513;28;20038;-71
2022/09/01 18:48:50;;;;;;;1.40;1.30;;;;;;;19.87;43.82;101787.84;10470284;28;20063;-70
2022/09/01 18:54:02;;;;;;;2.60;1.17;;;;;;;19.82;44.08;101796.81;10504361;28;20064;-70
2022/09/01 18:59:24;;;;;;;2.67;1.52;;;;;;;19.71;44.70;101784.72;10503681;28;20114;-70
2022/09/01 19:04:39;;;;;;;3.85;1.88;;;;;;;19.54;44.06;101789.19;10503950;28;20082;-70
2022/09/01 19:09:49;;;;;;;4.32;1.65;;;;;;;19.39;44.01;101789.63;10503417;28;20075;-70
2022/09/01 19:15:24;;;;;;;2.05;1.50;;;;;;;19.19;44.89;101798.16;10502696;28;20051;-73
2022/09/01 19:20:48;;;;;;;1.10;1.05;;;;;;;19.07;45.34;101790.97;10484111;28;20059;-70
2022/09/01 19:25:49;;;;;;;2.85;2.42;;;;;;;18.97;45.40;101791.50;10502260;28;20435;-70
2022/09/01 19:31:25;;;;;;;2.28;1.35;;;;;;;18.88;45.32;101801.97;10502017;28;20090;-70
2022/09/01 19:36:40;;;;;;;1.17;1.10;;;;;;;18.79;46.82;101801.47;10480064;28;20044;-70
2022/09/01 19:41:45;;;;;;;1.27;1.17;;;;;;;18.71;46.11;101804.47;10486493;28;20048;-70
2022/09/01 19:46:57;;;;;;;3.92;1.38;;;;;;;18.61;46.75;101793.22;10502503;28;20028;-69
2022/09/01 19:52:04;;;;;;;0.95;0.95;;;;;;;18.52;46.82;101794.56;10484846;28;20193;-70
2022/09/01 19:57:24;;;;;;;3.50;1.83;;;;;;;18.45;47.14;101794.66;10484531;28;20060;-70
2022/09/01 20:02:36;;;;;;;1.13;1.13;;;;;;;18.35;49.20;101800.66;10501415;28;20461;-70
2022/09/01 20:07:43;;;;;;;2.20;1.63;;;;;;;18.31;49.42;101804.06;10501200;28;20499;-70
2022/09/01 20:12:54;;;;;;;;;;;;;;;18.16;48.26;101801.72;10501790;28;20047;-70
2022/09/01 20:17:57;;;;;;;5.38;1.83;;;;;;;18.02;49.11;101802.88;10498708;28;19972;-70
2022/09/01 20:23:27;;;;;;;1.90;1.70;;;;;;;17.93;49.01;101801.50;10483219;28;20041;-70
2022/09/01 20:29:02;;;;;;;1.70;1.60;;;;;;;17.89;49.42;101801.09;10477642;28;20036;-69
2022/09/01 20:34:09;;;;;;;0.82;0.82;;;;;;;17.76;50.24;101799.28;10501209;28;20032;-69
2022/09/01 20:44:43;;;;;;;3.80;1.45;;;;;;;17.58;50.56;101793.72;10498872;28;20435;-70
2022/09/01 20:49:44;;;;;;;1.60;1.50;;;;;;;17.53;50.22;101799.06;10498929;28;20454;-70
2022/09/01 20:54:55;;;;;;;6.00;1.67;;;;;;;17.48;50.92;101804.34;10498513;28;20039;-70
2022/09/01 20:59:58;;;;;;;3.28;2.20;;;;;;;17.38;51.67;101791.97;10482328;28;20077;-70
2022/09/01 21:05:05;;;;;;;1.63;1.52;;;;;;;17.36;51.66;101796.03;10466694;28;20029;-70
2022/09/01 21:10:14;;;;;;;1.50;1.42;;;;;;;17.32;52.55;101790.13;10498798;28;20032;-69
2022/09/01 21:15:15;;;;;;;5.30;2.53;;;;;;;17.29;53.25;101793.31;10499806;28;20044;-69
2022/09/01 21:20:54;;;;;;;2.60;1.48;;;;;;;17.27;53.35;101787.22;10499633;28;20028;-68
2022/09/01 21:25:55;;;;;;;2.67;2.22;;;;;;;17.24;52.26;101787.66;10483058;28;20534;-69
2022/09/01 21:30:56;;;;;;;4.60;2.13;;;;;;;17.17;54.66;101782.22;10497329;28;20032;-68
2022/09/01 21:35:57;;;;;;;3.10;1.48;;;;;;;17.15;53.32;101778.03;10498043;28;20025;-68
2022/09/01 21:40:58;;;;;;;3.50;1.40;;;;;;;17.13;54.88;101767.31;10498486;28;20104;-69
2022/09/01 21:45:59;;;;;;;1.98;1.83;;;;;;;17.18;54.64;101766.66;10498344;28;20380;-70
2022/09/01 21:50:59;;;;;;;1.67;1.58;;;;;;;17.17;54.51;101776.75;10481633;28;20033;-70
2022/09/01 21:56:00;;;;;;;5.50;2.35;;;;;;;17.20;54.39;101768.09;10497606;28;20147;-70
2022/09/01 22:01:00;;;;;;;9.05;1.45;;;;;;;17.17;55.26;101768.56;10480583;28;20116;-70
2022/09/01 22:06:01;;;;;;;2.30;1.83;;;;;;;17.16;54.85;101766.00;10497371;28;20029;-70
2022/09/01 22:11:07;;;;;;;3.53;1.83;;;;;;;17.13;55.38;101753.63;10497745;28;20037;-70
2022/09/01 22:16:07;;;;;;;2.10;1.90;;;;;;;17.10;55.15;101761.41;10497045;28;20139;-69
2022/09/01 22:21:08;;;;;;;1.50;1.00;;;;;;;17.09;55.17;101746.91;10498733;28;20472;-70
2022/09/01 22:26:09;;;;;;;4.97;2.53;;;;;;;17.05;54.67;101753.06;10479771;28;20032;-69
2022/09/01 22:31:13;;;;;;;1.50;1.40;;;;;;;16.99;54.51;101759.41;10497913;28;20037;-70
2022/09/01 22:36:31;;;;;;;3.88;1.60;;;;;;;16.98;54.21;101757.72;10499018;28;20033;-69
2022/09/01 22:41:35;;;;;;;8.23;1.70;;;;;;;16.93;53.75;101748.25;10501162;28;20115;-70
2022/09/01 22:46:36;;;;;;;1.70;1.55;;;;;;;16.85;53.86;101740.31;10504681;28;20120;-69
2022/09/01 22:51:37;;;;;;;6.00;1.25;;;;;;;16.83;54.54;101742.44;10502852;28;20086;-70
2022/09/01 22:56:38;;;;;;;1.75;1.50;;;;;;;16.82;54.81;101745.41;10504956;28;20032;-70
2022/09/01 23:01:41;;;;;;;1.35;1.27;;;;;;;16.78;54.14;101741.41;10486825;28;20182;-69
2022/09/01 23:06:51;;;;;;;1.23;1.13;;;;;;;16.70;54.01;101737.00;10503100;28;20153;-69
2022/09/01 23:11:52;;;;;;;2.55;1.65;;;;;;;16.65;54.17;101728.59;10505172;28;20089;-70
2022/09/01 23:16:52;;;;;;;5.18;1.60;;;;;;;16.56;52.99;101718.97;10504929;28;20365;-69
2022/09/01 23:21:53;;;;;;;1.15;1.15;;;;;;;16.45;53.74;101723.22;10485786;28;20029;-70
2022/09/01 23:26:53;;;;;;;1.60;1.38;;;;;;;16.36;53.11;101717.16;10503572;28;20040;-69